sensor_id;sensor_type;location;lat;lon;timestamp;pressure;altitude;pressure_sealevel;temperature;humidity
53514;BME280;39768;54.148;12.174;2023-03-25T00:02:04;99846.34;;;13.26;89.70
53514;BME280;39768;54.148;12.174;2023-03-25T00:06:08;99826.53;;;13.77;84.22
53514;BME280;39768;54.148;12.174;2023-03-25T00:10:12;99828.38;;;13.75;85.06
53514;BME280;39768;54.148;12.174;2023-03-25T00:14:14;99837.28;;;13.96;83.39
53514;BME280;39768;54.148;12.174;2023-03-25T00:18:20;99825.75;;;13.30;88.47
53514;BME280;39768;54.148;12.174;2023-03-25T00:22:23;99828.78;;;13.21;89.79
53514;BME280;39768;54.148;12.174;2023-03-25T00:26:24;99819.28;;;12.90;89.85
53514;BME280;39768;54.148;12.174;2023-03-25T00:30:30;99817.13;;;13.23;88.25
53514;BME280;39768;54.148;12.174;2023-03-25T00:34:32;99819.44;;;13.32;87.50
53514;BME280;39768;54.148;12.174;2023-03-25T00:38:35;99820.06;;;13.17;90.00
53514;BME280;39768;54.148;12.174;2023-03-25T00:42:38;99821.47;;;12.79;92.63
53514;BME280;39768;54.148;12.174;2023-03-25T00:46:50;99806.69;;;12.94;93.00
53514;BME280;39768;54.148;12.174;2023-03-25T00:50:52;99814.69;;;12.70;95.48
53514;BME280;39768;54.148;12.174;2023-03-25T00:54:53;99811.78;;;12.77;94.77
53514;BME280;39768;54.148;12.174;2023-03-25T00:58:55;99822.59;;;13.20;91.65
53514;BME280;39768;54.148;12.174;2023-03-25T01:02:57;99814.06;;;12.87;94.70
53514;BME280;39768;54.148;12.174;2023-03-25T01:06:59;99809.69;;;13.08;96.57
53514;BME280;39768;54.148;12.174;2023-03-25T01:11:02;99799.34;;;13.00;93.88
53514;BME280;39768;54.148;12.174;2023-03-25T01:15:04;99809.06;;;12.78;93.43
53514;BME280;39768;54.148;12.174;2023-03-25T01:19:05;99805.00;;;13.16;93.58
53514;BME280;39768;54.148;12.174;2023-03-25T01:23:07;99808.44;;;12.95;95.24
53514;BME280;39768;54.148;12.174;2023-03-25T01:27:09;99794.84;;;13.02;95.80
53514;BME280;39768;54.148;12.174;2023-03-25T01:31:13;99785.22;;;13.22;97.17
53514;BME280;39768;54.148;12.174;2023-03-25T01:35:15;99794.34;;;13.16;99.25
53514;BME280;39768;54.148;12.174;2023-03-25T01:39:17;99783.31;;;13.47;97.98
53514;BME280;39768;54.148;12.174;2023-03-25T01:43:20;99802.09;;;12.76;97.99
53514;BME280;39768;54.148;12.174;2023-03-25T01:47:21;99779.31;;;12.19;100.00
53514;BME280;39768;54.148;12.174;2023-03-25T01:51:26;99785.81;;;12.60;100.00
53514;BME280;39768;54.148;12.174;2023-03-25T01:55:32;99770.34;;;12.93;100.00
53514;BME280;39768;54.148;12.174;2023-03-25T01:59:35;99773.91;;;12.92;100.00
53514;BME280;39768;54.148;12.174;2023-03-25T02:03:41;99761.19;;;12.30;100.00
53514;BME280;39768;54.148;12.174;2023-03-25T02:07:53;99752.72;;;12.44;100.00
53514;BME280;39768;54.148;12.174;2023-03-25T02:11:54;99765.09;;;12.45;100.00
53514;BME280;39768;54.148;12.174;2023-03-25T02:24:52;99755.25;;;12.70;98.80
53514;BME280;39768;54.148;12.174;2023-03-25T02:29:10;99750.16;;;12.87;98.24
53514;BME280;39768;54.148;12.174;2023-03-25T02:33:33;99748.56;;;12.82;97.59
53514;BME280;39768;54.148;12.174;2023-03-25T02:42:25;99747.22;;;12.71;99.12
53514;BME280;39768;54.148;12.174;2023-03-25T02:46:32;99742.88;;;12.46;100.00
53514;BME280;39768;54.148;12.174;2023-03-25T02:50:39;99738.28;;;12.73;98.11
53514;BME280;39768;54.148;12.174;2023-03-25T02:54:42;99744.81;;;12.87;100.00
53514;BME280;39768;54.148;12.174;2023-03-25T02:58:45;99724.97;;;12.73;100.00
53514;BME280;39768;54.148;12.174;2023-03-25T03:02:57;99729.06;;;13.26;96.66
53514;BME280;39768;54.148;12.174;2023-03-25T03:07:01;99735.97;;;13.32;95.02
53514;BME280;39768;54.148;12.174;2023-03-25T03:11:30;99731.72;;;12.59;99.46
53514;BME280;39768;54.148;12.174;2023-03-25T03:16:06;99721.09;;;12.81;98.99
53514;BME280;39768;54.148;12.174;2023-03-25T03:20:37;99726.53;;;12.78;96.65
53514;BME280;39768;54.148;12.174;2023-03-25T03:24:44;99729.69;;;12.43;100.00
53514;BME280;39768;54.148;12.174;2023-03-25T03:29:18;99731.72;;;12.59;99.60
53514;BME280;39768;54.148;12.174;2023-03-25T03:37:57;99723.53;;;12.64;95.45
53514;BME280;39768;54.148;12.174;2023-03-25T03:42:03;99732.97;;;12.73;97.95
53514;BME280;39768;54.148;12.174;2023-03-25T03:46:22;99740.31;;;12.66;98.59
53514;BME280;39768;54.148;12.174;2023-03-25T03:50:28;99729.44;;;12.25;98.88
53514;BME280;39768;54.148;12.174;2023-03-25T03:54:36;99733.34;;;13.07;98.16
53514;BME280;39768;54.148;12.174;2023-03-25T03:58:40;99730.34;;;13.38;92.97
53514;BME280;39768;54.148;12.174;2023-03-25T04:06:55;99744.16;;;12.59;100.00
53514;BME280;39768;54.148;12.174;2023-03-25T04:11:02;99738.25;;;12.96;98.92
53514;BME280;39768;54.148;12.174;2023-03-25T04:15:08;99737.31;;;12.75;99.57
53514;BME280;39768;54.148;12.174;2023-03-25T04:19:10;99741.13;;;12.68;100.00
53514;BME280;39768;54.148;12.174;2023-03-25T04:23:14;99739.94;;;12.98;96.58
53514;BME280;39768;54.148;12.174;2023-03-25T04:27:18;99738.47;;;12.45;100.00
53514;BME280;39768;54.148;12.174;2023-03-25T04:31:20;99734.00;;;13.14;96.39
53514;BME280;39768;54.148;12.174;2023-03-25T04:35:22;99747.56;;;13.07;95.23
53514;BME280;39768;54.148;12.174;2023-03-25T04:39:26;99735.69;;;13.38;94.13
53514;BME280;39768;54.148;12.174;2023-03-25T04:43:30;99733.16;;;13.35;95.66
53514;BME280;39768;54.148;12.174;2023-03-25T04:47:31;99737.81;;;13.06;98.17
53514;BME280;39768;54.148;12.174;2023-03-25T04:51:33;99727.28;;;13.27;96.85
53514;BME280;39768;54.148;12.174;2023-03-25T04:55:34;99719.50;;;13.21;97.48
53514;BME280;39768;54.148;12.174;2023-03-25T04:59:36;99718.28;;;13.29;97.27
53514;BME280;39768;54.148;12.174;2023-03-25T05:03:38;99715.84;;;13.23;96.12
53514;BME280;39768;54.148;12.174;2023-03-25T05:07:40;99720.84;;;13.53;94.15
53514;BME280;39768;54.148;12.174;2023-03-25T05:11:42;99711.75;;;13.79;92.73
53514;BME280;39768;54.148;12.174;2023-03-25T05:15:43;99711.91;;;13.54;93.20
53514;BME280;39768;54.148;12.174;2023-03-25T05:19:45;99708.13;;;13.17;95.88
53514;BME280;39768;54.148;12.174;2023-03-25T05:23:46;99710.75;;;13.39;93.13
53514;BME280;39768;54.148;12.174;2023-03-25T05:27:48;99700.41;;;13.73;91.64
53514;BME280;39768;54.148;12.174;2023-03-25T05:31:49;99699.34;;;13.77;91.06
53514;BME280;39768;54.148;12.174;2023-03-25T05:35:50;99706.16;;;13.64;90.82
53514;BME280;39768;54.148;12.174;2023-03-25T05:39:53;99703.63;;;13.61;91.07
53514;BME280;39768;54.148;12.174;2023-03-25T05:43:54;99708.13;;;13.59;92.17
53514;BME280;39768;54.148;12.174;2023-03-25T05:47:56;99710.53;;;13.45;93.51
53514;BME280;39768;54.148;12.174;2023-03-25T05:51:59;99704.81;;;13.74;89.84
53514;BME280;39768;54.148;12.174;2023-03-25T05:56:02;99704.81;;;13.74;91.14
53514;BME280;39768;54.148;12.174;2023-03-25T06:00:04;99711.69;;;13.38;92.71
53514;BME280;39768;54.148;12.174;2023-03-25T06:04:11;99712.47;;;14.02;90.04
53514;BME280;39768;54.148;12.174;2023-03-25T06:08:13;99704.69;;;13.77;92.86
53514;BME280;39768;54.148;12.174;2023-03-25T06:12:18;99707.53;;;13.73;91.78
53514;BME280;39768;54.148;12.174;2023-03-25T06:16:22;99710.41;;;13.48;94.20
53514;BME280;39768;54.148;12.174;2023-03-25T06:20:27;99716.47;;;14.12;90.07
53514;BME280;39768;54.148;12.174;2023-03-25T06:24:29;99710.16;;;13.95;88.16
53514;BME280;39768;54.148;12.174;2023-03-25T06:28:30;99707.47;;;13.54;92.75
53514;BME280;39768;54.148;12.174;2023-03-25T06:32:34;99720.22;;;14.08;89.04
53514;BME280;39768;54.148;12.174;2023-03-25T06:36:35;99711.31;;;14.49;85.74
53514;BME280;39768;54.148;12.174;2023-03-25T06:40:37;99718.66;;;14.43;86.44
53514;BME280;39768;54.148;12.174;2023-03-25T06:44:39;99722.16;;;14.05;87.37
53514;BME280;39768;54.148;12.174;2023-03-25T06:49:10;99715.19;;;14.41;85.69
53514;BME280;39768;54.148;12.174;2023-03-25T06:53:11;99713.47;;;14.20;84.38
53514;BME280;39768;54.148;12.174;2023-03-25T06:57:12;99709.00;;;14.21;86.34
53514;BME280;39768;54.148;12.174;2023-03-25T07:01:14;99713.72;;;14.34;85.66
53514;BME280;39768;54.148;12.174;2023-03-25T07:05:16;99711.47;;;14.64;83.71
53514;BME280;39768;54.148;12.174;2023-03-25T07:09:17;99720.31;;;15.02;83.62
53514;BME280;39768;54.148;12.174;2023-03-25T07:13:19;99721.19;;;14.84;79.66
53514;BME280;39768;54.148;12.174;2023-03-25T07:17:20;99711.97;;;14.54;83.73
53514;BME280;39768;54.148;12.174;2023-03-25T07:21:22;99717.44;;;14.30;82.57
53514;BME280;39768;54.148;12.174;2023-03-25T07:25:24;99714.66;;;14.54;80.22
53514;BME280;39768;54.148;12.174;2023-03-25T07:29:26;99725.75;;;14.63;83.90
53514;BME280;39768;54.148;12.174;2023-03-25T07:33:27;99738.38;;;14.39;83.21
53514;BME280;39768;54.148;12.174;2023-03-25T07:37:29;99743.13;;;14.33;86.48
53514;BME280;39768;54.148;12.174;2023-03-25T07:41:30;99747.09;;;14.24;86.37
53514;BME280;39768;54.148;12.174;2023-03-25T07:45:44;99752.31;;;14.07;90.04
53514;BME280;39768;54.148;12.174;2023-03-25T07:49:45;99745.50;;;14.00;93.89
53514;BME280;39768;54.148;12.174;2023-03-25T07:53:48;99740.41;;;13.73;96.34
53514;BME280;39768;54.148;12.174;2023-03-25T07:57:50;99747.63;;;13.71;97.35
53514;BME280;39768;54.148;12.174;2023-03-25T08:01:51;99751.19;;;13.50;98.66
53514;BME280;39768;54.148;12.174;2023-03-25T08:05:53;99745.06;;;13.68;97.91
53514;BME280;39768;54.148;12.174;2023-03-25T08:09:55;99753.50;;;14.00;95.86
53514;BME280;39768;54.148;12.174;2023-03-25T08:13:56;99757.28;;;13.74;98.95
53514;BME280;39768;54.148;12.174;2023-03-25T08:17:57;99756.09;;;14.01;98.59
53514;BME280;39768;54.148;12.174;2023-03-25T08:21:59;99761.50;;;14.00;98.44
53514;BME280;39768;54.148;12.174;2023-03-25T08:26:01;99758.88;;;14.59;97.89
53514;BME280;39768;54.148;12.174;2023-03-25T08:30:03;99759.25;;;14.52;98.16
53514;BME280;39768;54.148;12.174;2023-03-25T08:34:05;99767.72;;;14.80;97.32
53514;BME280;39768;54.148;12.174;2023-03-25T08:38:07;99773.22;;;14.96;96.71
53514;BME280;39768;54.148;12.174;2023-03-25T08:42:10;99769.13;;;14.50;98.93
53514;BME280;39768;54.148;12.174;2023-03-25T08:46:12;99767.22;;;13.70;100.00
53514;BME280;39768;54.148;12.174;2023-03-25T08:50:14;99781.72;;;14.26;100.00
53514;BME280;39768;54.148;12.174;2023-03-25T08:54:16;99787.50;;;13.74;100.00
53514;BME280;39768;54.148;12.174;2023-03-25T08:58:17;99791.50;;;13.85;100.00
53514;BME280;39768;54.148;12.174;2023-03-25T09:02:19;99787.03;;;13.65;99.02
53514;BME280;39768;54.148;12.174;2023-03-25T09:06:21;99801.00;;;13.92;96.16
53514;BME280;39768;54.148;12.174;2023-03-25T09:10:22;99794.91;;;13.46;95.30
53514;BME280;39768;54.148;12.174;2023-03-25T09:14:24;99779.75;;;13.25;97.73
53514;BME280;39768;54.148;12.174;2023-03-25T09:18:25;99781.00;;;13.60;98.07
53514;BME280;39768;54.148;12.174;2023-03-25T09:22:27;99796.28;;;14.39;94.24
53514;BME280;39768;54.148;12.174;2023-03-25T09:26:29;99788.44;;;14.55;94.21
53514;BME280;39768;54.148;12.174;2023-03-25T09:30:30;99797.56;;;14.51;96.96
53514;BME280;39768;54.148;12.174;2023-03-25T09:34:32;99789.47;;;14.32;95.85
53514;BME280;39768;54.148;12.174;2023-03-25T09:38:34;99789.09;;;14.80;91.36
53514;BME280;39768;54.148;12.174;2023-03-25T09:42:48;99792.88;;;15.13;88.83
53514;BME280;39768;54.148;12.174;2023-03-25T09:46:54;99787.50;;;14.95;90.22
53514;BME280;39768;54.148;12.174;2023-03-25T09:51:11;99786.63;;;14.94;90.05
53514;BME280;39768;54.148;12.174;2023-03-25T09:55:19;99782.03;;;15.52;89.25
53514;BME280;39768;54.148;12.174;2023-03-25T09:59:48;99779.97;;;15.76;88.90
53514;BME280;39768;54.148;12.174;2023-03-25T10:04:00;99775.44;;;15.24;92.16
53514;BME280;39768;54.148;12.174;2023-03-25T10:08:23;99763.69;;;16.15;90.00
53514;BME280;39768;54.148;12.174;2023-03-25T10:12:41;99757.16;;;16.04;84.00
53514;BME280;39768;54.148;12.174;2023-03-25T10:16:55;99756.56;;;16.82;84.13
53514;BME280;39768;54.148;12.174;2023-03-25T10:21:29;99755.03;;;17.09;82.33
53514;BME280;39768;54.148;12.174;2023-03-25T10:25:35;99740.06;;;17.21;74.86
53514;BME280;39768;54.148;12.174;2023-03-25T10:29:50;99748.38;;;17.16;71.50
53514;BME280;39768;54.148;12.174;2023-03-25T10:33:56;99744.56;;;17.05;66.40
53514;BME280;39768;54.148;12.174;2023-03-25T10:38:11;99752.63;;;17.05;66.38
53514;BME280;39768;54.148;12.174;2023-03-25T10:42:22;99752.69;;;17.03;68.03
53514;BME280;39768;54.148;12.174;2023-03-25T10:46:30;99751.56;;;16.76;67.08
53514;BME280;39768;54.148;12.174;2023-03-25T10:50:34;99746.03;;;17.10;64.59
53514;BME280;39768;54.148;12.174;2023-03-25T10:54:40;99739.97;;;17.22;65.49
53514;BME280;39768;54.148;12.174;2023-03-25T10:58:45;99723.81;;;16.77;70.63
53514;BME280;39768;54.148;12.174;2023-03-25T11:02:48;99729.84;;;16.96;69.17
53514;BME280;39768;54.148;12.174;2023-03-25T11:06:53;99750.53;;;15.94;71.60
53514;BME280;39768;54.148;12.174;2023-03-25T11:10:58;99751.59;;;14.63;87.49
53514;BME280;39768;54.148;12.174;2023-03-25T11:15:04;99753.81;;;14.12;94.34
53514;BME280;39768;54.148;12.174;2023-03-25T11:19:05;99753.69;;;14.36;94.55
53514;BME280;39768;54.148;12.174;2023-03-25T11:27:25;99737.28;;;15.20;91.61
53514;BME280;39768;54.148;12.174;2023-03-25T11:31:33;99739.28;;;15.70;89.65
53514;BME280;39768;54.148;12.174;2023-03-25T11:35:40;99736.66;;;15.32;91.01
53514;BME280;39768;54.148;12.174;2023-03-25T11:39:51;99737.47;;;15.34;89.54
53514;BME280;39768;54.148;12.174;2023-03-25T11:43:56;99749.63;;;15.41;92.29
53514;BME280;39768;54.148;12.174;2023-03-25T11:48:00;99763.03;;;14.46;95.58
53514;BME280;39768;54.148;12.174;2023-03-25T11:52:09;99752.41;;;13.84;93.05
53514;BME280;39768;54.148;12.174;2023-03-25T11:56:19;99759.06;;;13.31;100.00
53514;BME280;39768;54.148;12.174;2023-03-25T12:00:28;99750.47;;;13.67;98.52
53514;BME280;39768;54.148;12.174;2023-03-25T12:04:54;99733.47;;;14.10;92.71
53514;BME280;39768;54.148;12.174;2023-03-25T12:09:52;99744.69;;;14.38;89.78
53514;BME280;39768;54.148;12.174;2023-03-25T12:18:34;99757.50;;;14.30;92.74
53514;BME280;39768;54.148;12.174;2023-03-25T12:23:01;99760.69;;;14.38;94.24
53514;BME280;39768;54.148;12.174;2023-03-25T12:31:56;99754.97;;;13.87;96.71
53514;BME280;39768;54.148;12.174;2023-03-25T12:40:28;99741.81;;;13.62;99.81
53514;BME280;39768;54.148;12.174;2023-03-25T12:45:05;99741.63;;;14.07;99.34
53514;BME280;39768;54.148;12.174;2023-03-25T12:49:27;99746.47;;;14.77;95.04
53514;BME280;39768;54.148;12.174;2023-03-25T12:53:58;99746.84;;;14.88;91.77
53514;BME280;39768;54.148;12.174;2023-03-25T13:03:09;99737.16;;;16.11;84.27
53514;BME280;39768;54.148;12.174;2023-03-25T13:07:26;99737.66;;;16.35;83.23
53514;BME280;39768;54.148;12.174;2023-03-25T13:11:40;99732.91;;;16.90;77.17
53514;BME280;39768;54.148;12.174;2023-03-25T13:15:48;99731.78;;;16.61;72.57
53514;BME280;39768;54.148;12.174;2023-03-25T13:19:57;99737.53;;;16.53;71.61
53514;BME280;39768;54.148;12.174;2023-03-25T13:24:29;99734.97;;;15.67;74.34
53514;BME280;39768;54.148;12.174;2023-03-25T13:28:38;99729.28;;;15.91;70.71
53514;BME280;39768;54.148;12.174;2023-03-25T13:32:43;99725.97;;;16.03;71.94
53514;BME280;39768;54.148;12.174;2023-03-25T13:37:03;99738.66;;;15.82;74.76
53514;BME280;39768;54.148;12.174;2023-03-25T13:41:29;99724.34;;;16.33;74.11
53514;BME280;39768;54.148;12.174;2023-03-25T13:45:43;99732.94;;;15.72;72.94
53514;BME280;39768;54.148;12.174;2023-03-25T13:49:54;99729.91;;;15.61;74.31
53514;BME280;39768;54.148;12.174;2023-03-25T13:54:13;99725.59;;;15.76;74.05
53514;BME280;39768;54.148;12.174;2023-03-25T13:58:33;99720.59;;;15.15;76.88
53514;BME280;39768;54.148;12.174;2023-03-25T14:11:39;99758.91;;;13.13;99.09
53514;BME280;39768;54.148;12.174;2023-03-25T14:15:52;99756.69;;;14.49;96.25
53514;BME280;39768;54.148;12.174;2023-03-25T14:19:57;99746.56;;;15.13;90.85
53514;BME280;39768;54.148;12.174;2023-03-25T14:24:13;99747.25;;;15.52;84.71
53514;BME280;39768;54.148;12.174;2023-03-25T14:28:19;99739.03;;;15.92;83.97
53514;BME280;39768;54.148;12.174;2023-03-25T14:53:59;99745.97;;;14.69;76.51
53514;BME280;39768;54.148;12.174;2023-03-25T14:58:26;99746.91;;;15.05;77.01
53514;BME280;39768;54.148;12.174;2023-03-25T15:02:30;99749.91;;;15.35;75.77
53514;BME280;39768;54.148;12.174;2023-03-25T15:06:33;99741.75;;;14.44;78.70
53514;BME280;39768;54.148;12.174;2023-03-25T15:10:39;99740.16;;;14.20;80.03
53514;BME280;39768;54.148;12.174;2023-03-25T15:14:42;99731.28;;;13.99;83.51
53514;BME280;39768;54.148;12.174;2023-03-25T15:27:47;99730.44;;;14.77;79.71
53514;BME280;39768;54.148;12.174;2023-03-25T15:57:47;99720.28;;;14.07;80.21
53514;BME280;39768;54.148;12.174;2023-03-25T16:01:50;99716.06;;;14.22;80.59
53514;BME280;39768;54.148;12.174;2023-03-25T16:05:59;99718.38;;;15.06;75.85
53514;BME280;39768;54.148;12.174;2023-03-25T16:10:46;99716.50;;;14.70;77.92
53514;BME280;39768;54.148;12.174;2023-03-25T16:14:30;99717.84;;;14.41;80.50
53514;BME280;39768;54.148;12.174;2023-03-25T16:18:32;99730.47;;;14.18;82.26
53514;BME280;39768;54.148;12.174;2023-03-25T16:22:34;99720.69;;;14.18;79.43
53514;BME280;39768;54.148;12.174;2023-03-25T16:26:45;99723.66;;;13.70;81.70
53514;BME280;39768;54.148;12.174;2023-03-25T16:30:51;99729.28;;;13.84;81.38
53514;BME280;39768;54.148;12.174;2023-03-25T16:34:56;99726.84;;;14.39;76.68
53514;BME280;39768;54.148;12.174;2023-03-25T16:38:58;99732.25;;;14.37;78.16
53514;BME280;39768;54.148;12.174;2023-03-25T16:43:04;99730.88;;;14.49;76.11
53514;BME280;39768;54.148;12.174;2023-03-25T16:47:10;99723.72;;;14.29;76.26
53514;BME280;39768;54.148;12.174;2023-03-25T16:51:20;99728.53;;;14.21;78.10
53514;BME280;39768;54.148;12.174;2023-03-25T16:55:29;99723.44;;;13.76;81.15
53514;BME280;39768;54.148;12.174;2023-03-25T16:59:34;99722.13;;;14.25;77.56
53514;BME280;39768;54.148;12.174;2023-03-25T17:07:45;99713.16;;;14.07;81.83
53514;BME280;39768;54.148;12.174;2023-03-25T17:11:52;99708.38;;;14.14;81.21
53514;BME280;39768;54.148;12.174;2023-03-25T17:15:54;99695.75;;;13.79;81.84
53514;BME280;39768;54.148;12.174;2023-03-25T17:20:00;99704.91;;;14.12;81.44
53514;BME280;39768;54.148;12.174;2023-03-25T17:24:20;99700.13;;;14.00;82.24
53514;BME280;39768;54.148;12.174;2023-03-25T17:32:41;99702.16;;;13.95;84.15
53514;BME280;39768;54.148;12.174;2023-03-25T17:36:46;99704.00;;;13.72;85.25
53514;BME280;39768;54.148;12.174;2023-03-25T17:41:06;99715.03;;;13.65;85.36
53514;BME280;39768;54.148;12.174;2023-03-25T17:45:13;99707.47;;;13.54;86.14
53514;BME280;39768;54.148;12.174;2023-03-25T17:49:17;99709.53;;;13.26;88.59
53514;BME280;39768;54.148;12.174;2023-03-25T17:53:20;99714.94;;;13.46;88.17
53514;BME280;39768;54.148;12.174;2023-03-25T17:57:21;99711.66;;;13.80;87.01
53514;BME280;39768;54.148;12.174;2023-03-25T18:01:23;99712.41;;;13.63;88.10
53514;BME280;39768;54.148;12.174;2023-03-25T18:05:26;99713.28;;;14.04;84.50
53514;BME280;39768;54.148;12.174;2023-03-25T18:09:27;99706.75;;;13.91;84.69
53514;BME280;39768;54.148;12.174;2023-03-25T18:13:29;99704.25;;;13.66;88.30
53514;BME280;39768;54.148;12.174;2023-03-25T18:17:30;99704.38;;;12.99;93.08
53514;BME280;39768;54.148;12.174;2023-03-25T18:21:32;99712.31;;;13.23;92.09
53514;BME280;39768;54.148;12.174;2023-03-25T18:25:33;99707.91;;;13.00;95.73
53514;BME280;39768;54.148;12.174;2023-03-25T18:29:35;99712.44;;;12.76;97.48
53514;BME280;39768;54.148;12.174;2023-03-25T18:33:37;99708.41;;;12.64;97.87
53514;BME280;39768;54.148;12.174;2023-03-25T18:37:39;99709.94;;;13.17;95.13
53514;BME280;39768;54.148;12.174;2023-03-25T18:41:42;99703.88;;;13.12;94.12
53514;BME280;39768;54.148;12.174;2023-03-25T18:45:45;99702.53;;;13.45;91.81
53514;BME280;39768;54.148;12.174;2023-03-25T18:49:47;99709.38;;;13.30;92.19
53514;BME280;39768;54.148;12.174;2023-03-25T18:53:48;99705.50;;;13.37;92.04
53514;BME280;39768;54.148;12.174;2023-03-25T18:57:50;99708.22;;;13.36;90.94
53514;BME280;39768;54.148;12.174;2023-03-25T19:01:51;99709.72;;;13.43;92.73
53514;BME280;39768;54.148;12.174;2023-03-25T19:05:53;99702.13;;;13.11;93.38
53514;BME280;39768;54.148;12.174;2023-03-25T19:09:54;99695.56;;;13.41;94.57
53514;BME280;39768;54.148;12.174;2023-03-25T19:13:56;99690.88;;;13.26;94.55
53514;BME280;39768;54.148;12.174;2023-03-25T19:17:57;99687.63;;;13.19;93.39
53514;BME280;39768;54.148;12.174;2023-03-25T19:22:01;99678.13;;;13.34;93.16
53514;BME280;39768;54.148;12.174;2023-03-25T19:26:03;99675.63;;;12.86;94.92
53514;BME280;39768;54.148;12.174;2023-03-25T19:30:06;99674.06;;;12.80;95.28
53514;BME280;39768;54.148;12.174;2023-03-25T19:34:08;99682.75;;;12.85;98.41
53514;BME280;39768;54.148;12.174;2023-03-25T19:38:10;99684.69;;;13.25;94.72
53514;BME280;39768;54.148;12.174;2023-03-25T19:42:12;99674.25;;;13.41;95.25
53514;BME280;39768;54.148;12.174;2023-03-25T19:46:14;99679.53;;;12.99;96.35
53514;BME280;39768;54.148;12.174;2023-03-25T19:50:18;99683.94;;;13.44;94.15
53514;BME280;39768;54.148;12.174;2023-03-25T19:54:20;99683.38;;;13.14;94.76
53514;BME280;39768;54.148;12.174;2023-03-25T19:58:22;99685.16;;;12.69;96.33
53514;BME280;39768;54.148;12.174;2023-03-25T20:02:24;99679.97;;;12.88;94.67
53514;BME280;39768;54.148;12.174;2023-03-25T20:06:27;99672.13;;;12.62;97.25
53514;BME280;39768;54.148;12.174;2023-03-25T20:10:29;99674.09;;;13.02;92.97
53514;BME280;39768;54.148;12.174;2023-03-25T20:14:30;99675.22;;;12.51;96.89
53514;BME280;39768;54.148;12.174;2023-03-25T20:18:32;99663.88;;;13.35;93.09
53514;BME280;39768;54.148;12.174;2023-03-25T20:22:34;99660.28;;;12.47;96.37
53514;BME280;39768;54.148;12.174;2023-03-25T20:26:36;99660.25;;;12.92;94.96
53514;BME280;39768;54.148;12.174;2023-03-25T20:30:37;99657.88;;;12.41;96.15
53514;BME280;39768;54.148;12.174;2023-03-25T20:34:39;99658.72;;;12.87;92.60
53514;BME280;39768;54.148;12.174;2023-03-25T20:38:40;99662.19;;;12.89;92.79
53514;BME280;39768;54.148;12.174;2023-03-25T20:42:56;99655.69;;;12.96;92.64
53514;BME280;39768;54.148;12.174;2023-03-25T20:46:59;99659.03;;;13.01;92.65
53514;BME280;39768;54.148;12.174;2023-03-25T20:51:05;99653.56;;;12.82;93.75
53514;BME280;39768;54.148;12.174;2023-03-25T20:55:07;99654.53;;;12.13;95.77
53514;BME280;39768;54.148;12.174;2023-03-25T20:59:10;99657.22;;;12.80;92.47
53514;BME280;39768;54.148;12.174;2023-03-25T21:03:14;99666.03;;;12.60;95.02
53514;BME280;39768;54.148;12.174;2023-03-25T21:07:19;99664.97;;;12.86;94.23
53514;BME280;39768;54.148;12.174;2023-03-25T21:11:22;99660.09;;;12.52;94.57
53514;BME280;39768;54.148;12.174;2023-03-25T21:15:24;99656.69;;;12.71;92.62
53514;BME280;39768;54.148;12.174;2023-03-25T21:19:26;99656.84;;;13.11;92.94
53514;BME280;39768;54.148;12.174;2023-03-25T21:23:28;99651.69;;;12.62;96.81
53514;BME280;39768;54.148;12.174;2023-03-25T21:27:30;99663.41;;;12.80;95.01
53514;BME280;39768;54.148;12.174;2023-03-25T21:31:40;99654.94;;;12.92;96.27
53514;BME280;39768;54.148;12.174;2023-03-25T21:35:45;99657.28;;;13.00;93.93
53514;BME280;39768;54.148;12.174;2023-03-25T21:39:54;99654.88;;;12.72;95.38
53514;BME280;39768;54.148;12.174;2023-03-25T21:43:58;99658.50;;;12.91;94.75
53514;BME280;39768;54.148;12.174;2023-03-25T21:48:00;99660.81;;;13.00;93.82
53514;BME280;39768;54.148;12.174;2023-03-25T21:52:02;99663.97;;;12.66;95.36
53514;BME280;39768;54.148;12.174;2023-03-25T21:56:04;99665.72;;;12.67;97.43
53514;BME280;39768;54.148;12.174;2023-03-25T22:00:06;99671.59;;;12.97;95.13
53514;BME280;39768;54.148;12.174;2023-03-25T22:04:14;99660.69;;;12.82;93.36
53514;BME280;39768;54.148;12.174;2023-03-25T22:08:16;99664.34;;;12.79;94.21
53514;BME280;39768;54.148;12.174;2023-03-25T22:12:18;99671.75;;;12.49;97.40
53514;BME280;39768;54.148;12.174;2023-03-25T22:16:20;99676.69;;;12.82;97.04
53514;BME280;39768;54.148;12.174;2023-03-25T22:20:22;99679.72;;;12.49;100.00
53514;BME280;39768;54.148;12.174;2023-03-25T22:24:23;99685.81;;;12.29;100.00
53514;BME280;39768;54.148;12.174;2023-03-25T22:28:24;99684.47;;;12.64;100.00
53514;BME280;39768;54.148;12.174;2023-03-25T22:32:27;99694.16;;;12.44;100.00
53514;BME280;39768;54.148;12.174;2023-03-25T22:36:30;99700.53;;;12.85;100.00
53514;BME280;39768;54.148;12.174;2023-03-25T22:40:33;99694.63;;;12.31;100.00
53514;BME280;39768;54.148;12.174;2023-03-25T22:44:34;99702.31;;;12.84;100.00
53514;BME280;39768;54.148;12.174;2023-03-25T22:48:36;99711.03;;;12.66;100.00
53514;BME280;39768;54.148;12.174;2023-03-25T22:52:40;99710.19;;;12.42;100.00
53514;BME280;39768;54.148;12.174;2023-03-25T22:56:42;99713.84;;;12.85;100.00
53514;BME280;39768;54.148;12.174;2023-03-25T23:00:44;99714.81;;;12.60;100.00
53514;BME280;39768;54.148;12.174;2023-03-25T23:04:46;99717.59;;;12.79;100.00
53514;BME280;39768;54.148;12.174;2023-03-25T23:08:48;99705.72;;;13.10;98.28
53514;BME280;39768;54.148;12.174;2023-03-25T23:12:50;99714.56;;;12.66;99.14
53514;BME280;39768;54.148;12.174;2023-03-25T23:16:52;99720.59;;;12.71;100.00
53514;BME280;39768;54.148;12.174;2023-03-25T23:20:54;99732.13;;;12.94;99.26